sensor_id;sensor_type;location;lat;lon;timestamp;pressure;altitude;pressure_sealevel;temperature;humidity
13612;BME280;6877;51.436;6.774;2023-05-10T00:00:19;100325.63;;;12.17;100.00
13612;BME280;6877;51.436;6.774;2023-05-10T00:02:46;100323.00;;;12.17;100.00
13612;BME280;6877;51.436;6.774;2023-05-10T00:05:13;100329.97;;;12.18;100.00
13612;BME280;6877;51.436;6.774;2023-05-10T00:07:40;100329.09;;;12.18;100.00
13612;BME280;6877;51.436;6.774;2023-05-10T00:10:07;100323.00;;;12.17;100.00
13612;BME280;6877;51.436;6.774;2023-05-10T00:12:34;100323.00;;;12.17;100.00
13612;BME280;6877;51.436;6.774;2023-05-10T00:15:00;100328.28;;;12.16;100.00
13612;BME280;6877;51.436;6.774;2023-05-10T00:17:26;100323.91;;;12.16;100.00
13612;BME280;6877;51.436;6.774;2023-05-10T00:19:58;100322.28;;;12.12;100.00
13612;BME280;6877;51.436;6.774;2023-05-10T00:22:25;100321.44;;;12.12;100.00
13612;BME280;6877;51.436;6.774;2023-05-10T00:24:51;100320.59;;;12.11;100.00
13612;BME280;6877;51.436;6.774;2023-05-10T00:27:20;100319.94;;;12.03;100.00
13612;BME280;6877;51.436;6.774;2023-05-10T00:29:46;100325.38;;;11.97;100.00
13612;BME280;6877;51.436;6.774;2023-05-10T00:32:13;100325.53;;;11.92;100.00
13612;BME280;6877;51.436;6.774;2023-05-10T00:34:40;100327.41;;;11.89;100.00
13612;BME280;6877;51.436;6.774;2023-05-10T00:37:08;100322.25;;;11.86;100.00
13612;BME280;6877;51.436;6.774;2023-05-10T00:39:34;100322.31;;;11.82;100.00
13612;BME280;6877;51.436;6.774;2023-05-10T00:42:01;100318.88;;;11.80;100.00
13612;BME280;6877;51.436;6.774;2023-05-10T00:44:29;100325.81;;;11.81;100.00
13612;BME280;6877;51.436;6.774;2023-05-10T00:46:57;100324.19;;;11.77;100.00
13612;BME280;6877;51.436;6.774;2023-05-10T00:49:27;100325.16;;;11.75;100.00
13612;BME280;6877;51.436;6.774;2023-05-10T00:51:54;100315.56;;;11.74;100.00
13612;BME280;6877;51.436;6.774;2023-05-10T00:54:21;100323.47;;;11.72;100.00
13612;BME280;6877;51.436;6.774;2023-05-10T00:56:52;100322.59;;;11.73;100.00
13612;BME280;6877;51.436;6.774;2023-05-10T00:59:24;100320.81;;;11.74;100.00
13612;BME280;6877;51.436;6.774;2023-05-10T01:01:51;100322.59;;;11.73;100.00
13612;BME280;6877;51.436;6.774;2023-05-10T01:04:23;100331.16;;;11.78;100.00
13612;BME280;6877;51.436;6.774;2023-05-10T01:06:56;100328.44;;;11.81;100.00
13612;BME280;6877;51.436;6.774;2023-05-10T01:09:23;100334.53;;;11.82;100.00
13612;BME280;6877;51.436;6.774;2023-05-10T01:11:58;100333.66;;;11.83;100.00
13612;BME280;6877;51.436;6.774;2023-05-10T01:14:25;100337.16;;;11.82;100.00
13612;BME280;6877;51.436;6.774;2023-05-10T01:16:52;100333.66;;;11.83;100.00
13612;BME280;6877;51.436;6.774;2023-05-10T01:19:23;100336.38;;;11.80;100.00
13612;BME280;6877;51.436;6.774;2023-05-10T01:22:09;100339.84;;;11.80;100.00
13612;BME280;6877;51.436;6.774;2023-05-10T01:35:40;100332.59;;;11.59;100.00
13612;BME280;6877;51.436;6.774;2023-05-10T01:38:17;100340.66;;;11.53;100.00
13612;BME280;6877;51.436;6.774;2023-05-10T01:41:01;100339.84;;;11.51;100.00
13612;BME280;6877;51.436;6.774;2023-05-10T01:43:38;100341.59;;;11.50;100.00
13612;BME280;6877;51.436;6.774;2023-05-10T01:46:17;100335.50;;;11.50;100.00
13612;BME280;6877;51.436;6.774;2023-05-10T01:48:55;100341.59;;;11.50;100.00
13612;BME280;6877;51.436;6.774;2023-05-10T01:51:25;100344.19;;;11.52;100.00
13612;BME280;6877;51.436;6.774;2023-05-10T01:54:00;100341.59;;;11.50;100.00
13612;BME280;6877;51.436;6.774;2023-05-10T01:56:29;100347.81;;;11.48;100.00
13612;BME280;6877;51.436;6.774;2023-05-10T01:58:57;100344.34;;;11.46;100.00
13612;BME280;6877;51.436;6.774;2023-05-10T02:01:26;100354.75;;;11.49;100.00
13612;BME280;6877;51.436;6.774;2023-05-10T02:03:54;100347.81;;;11.48;100.00
13612;BME280;6877;51.436;6.774;2023-05-10T02:06:22;100340.81;;;11.47;100.00
13612;BME280;6877;51.436;6.774;2023-05-10T02:08:50;100347.81;;;11.48;100.00
13612;BME280;6877;51.436;6.774;2023-05-10T02:11:18;100336.41;;;11.49;100.00
13612;BME280;6877;51.436;6.774;2023-05-10T02:13:49;100344.28;;;11.49;100.00
13612;BME280;6877;51.436;6.774;2023-05-10T02:16:17;100341.69;;;11.47;100.00
13612;BME280;6877;51.436;6.774;2023-05-10T02:18:45;100352.13;;;11.49;100.00
13612;BME280;6877;51.436;6.774;2023-05-10T02:21:14;100342.47;;;11.51;100.00
13612;BME280;6877;51.436;6.774;2023-05-10T02:23:42;100350.28;;;11.52;100.00
13612;BME280;6877;51.436;6.774;2023-05-10T02:26:09;100350.25;;;11.54;100.00
13612;BME280;6877;51.436;6.774;2023-05-10T02:28:42;100343.28;;;11.53;100.00
13612;BME280;6877;51.436;6.774;2023-05-10T02:31:09;100343.31;;;11.51;100.00
13612;BME280;6877;51.436;6.774;2023-05-10T02:33:38;100345.97;;;11.50;100.00
13612;BME280;6877;51.436;6.774;2023-05-10T02:36:07;100349.50;;;11.49;100.00
13612;BME280;6877;51.436;6.774;2023-05-10T02:38:40;100354.69;;;11.50;100.00
13612;BME280;6877;51.436;6.774;2023-05-10T02:41:08;100359.13;;;11.48;100.00
13612;BME280;6877;51.436;6.774;2023-05-10T02:43:37;100355.66;;;11.48;100.00
13612;BME280;6877;51.436;6.774;2023-05-10T02:46:05;100357.41;;;11.47;100.00
13612;BME280;6877;51.436;6.774;2023-05-10T02:48:37;100350.38;;;11.49;100.00
13612;BME280;6877;51.436;6.774;2023-05-10T02:51:05;100352.03;;;11.52;100.00
13612;BME280;6877;51.436;6.774;2023-05-10T02:53:34;100345.88;;;11.53;100.00
13612;BME280;6877;51.436;6.774;2023-05-10T02:56:05;100358.88;;;11.57;100.00
13612;BME280;6877;51.436;6.774;2023-05-10T02:58:36;100354.50;;;11.58;100.00
13612;BME280;6877;51.436;6.774;2023-05-10T03:01:07;100354.50;;;11.58;100.00
13612;BME280;6877;51.436;6.774;2023-05-10T03:03:34;100357.09;;;11.58;100.00
13612;BME280;6877;51.436;6.774;2023-05-10T03:06:00;100360.59;;;11.58;100.00
13612;BME280;6877;51.436;6.774;2023-05-10T03:08:27;100356.19;;;11.59;100.00
13612;BME280;6877;51.436;6.774;2023-05-10T03:13:56;100353.53;;;11.60;100.00
13612;BME280;6877;51.436;6.774;2023-05-10T03:16:36;100357.91;;;11.60;100.00
13612;BME280;6877;51.436;6.774;2023-05-10T03:19:27;100363.94;;;11.64;100.00
13612;BME280;6877;51.436;6.774;2023-05-10T03:22:06;100373.44;;;11.66;100.00
13612;BME280;6877;51.436;6.774;2023-05-10T03:24:35;100369.03;;;11.68;100.00
13612;BME280;6877;51.436;6.774;2023-05-10T03:27:03;100370.81;;;11.68;100.00
13612;BME280;6877;51.436;6.774;2023-05-10T03:29:36;100376.91;;;11.68;100.00
13612;BME280;6877;51.436;6.774;2023-05-10T03:32:03;100374.28;;;11.68;100.00
13612;BME280;6877;51.436;6.774;2023-05-10T03:34:41;100370.75;;;11.69;100.00
13612;BME280;6877;51.436;6.774;2023-05-10T03:37:13;100373.38;;;11.69;100.00
13612;BME280;6877;51.436;6.774;2023-05-10T03:39:39;100371.66;;;11.68;100.00
13612;BME280;6877;51.436;6.774;2023-05-10T03:42:06;100383.00;;;11.69;100.00
13612;BME280;6877;51.436;6.774;2023-05-10T03:44:32;100383.00;;;11.69;100.00
13612;BME280;6877;51.436;6.774;2023-05-10T03:46:59;100380.34;;;11.70;100.00
13612;BME280;6877;51.436;6.774;2023-05-10T03:49:26;100378.59;;;11.69;100.00
13612;BME280;6877;51.436;6.774;2023-05-10T03:51:52;100378.53;;;11.72;100.00
13612;BME280;6877;51.436;6.774;2023-05-10T03:54:18;100386.44;;;11.71;100.00
13612;BME280;6877;51.436;6.774;2023-05-10T03:56:45;100385.59;;;11.70;100.00
13612;BME280;6877;51.436;6.774;2023-05-10T03:59:13;100386.38;;;11.72;100.00
13612;BME280;6877;51.436;6.774;2023-05-10T04:01:45;100395.06;;;11.74;100.00
13612;BME280;6877;51.436;6.774;2023-05-10T04:04:11;100388.06;;;11.75;100.00
13612;BME280;6877;51.436;6.774;2023-05-10T04:06:38;100386.28;;;11.75;100.00
13612;BME280;6877;51.436;6.774;2023-05-10T04:09:09;100395.81;;;11.79;100.00
13612;BME280;6877;51.436;6.774;2023-05-10T04:11:41;100397.53;;;11.80;100.00
13612;BME280;6877;51.436;6.774;2023-05-10T04:14:08;100403.59;;;11.82;100.00
13612;BME280;6877;51.436;6.774;2023-05-10T04:16:34;100400.91;;;11.84;100.00
13612;BME280;6877;51.436;6.774;2023-05-10T04:19:06;100402.66;;;11.85;100.00
13612;BME280;6877;51.436;6.774;2023-05-10T04:21:32;100400.03;;;11.85;100.00
13612;BME280;6877;51.436;6.774;2023-05-10T04:24:04;100395.66;;;11.86;100.00
13612;BME280;6877;51.436;6.774;2023-05-10T04:26:35;100399.94;;;11.88;100.00
13612;BME280;6877;51.436;6.774;2023-05-10T04:29:02;100402.47;;;11.91;100.00
13612;BME280;6877;51.436;6.774;2023-05-10T04:31:33;100398.13;;;11.90;100.00
13612;BME280;6877;51.436;6.774;2023-05-10T04:34:07;100404.22;;;11.91;100.00
13612;BME280;6877;51.436;6.774;2023-05-10T04:36:33;100404.22;;;11.92;100.00
13612;BME280;6877;51.436;6.774;2023-05-10T04:39:03;100403.28;;;11.93;100.00
13612;BME280;6877;51.436;6.774;2023-05-10T04:41:29;100397.09;;;11.96;100.00
13612;BME280;6877;51.436;6.774;2023-05-10T04:43:56;100408.34;;;11.99;100.00
13612;BME280;6877;51.436;6.774;2023-05-10T04:46:22;100409.13;;;12.03;100.00
13612;BME280;6877;51.436;6.774;2023-05-10T04:48:49;100402.06;;;12.05;100.00
13612;BME280;6877;51.436;6.774;2023-05-10T04:51:15;100397.63;;;12.07;100.00
13612;BME280;6877;51.436;6.774;2023-05-10T04:53:47;100399.22;;;12.13;100.00
13612;BME280;6877;51.436;6.774;2023-05-10T04:56:18;100406.94;;;12.17;100.00
13612;BME280;6877;51.436;6.774;2023-05-10T04:58:49;100412.03;;;12.22;100.00
13612;BME280;6877;51.436;6.774;2023-05-10T05:01:21;100416.38;;;12.23;100.00
13612;BME280;6877;51.436;6.774;2023-05-10T05:03:54;100413.75;;;12.23;100.00
13612;BME280;6877;51.436;6.774;2023-05-10T05:06:20;100416.34;;;12.24;100.00
13612;BME280;6877;51.436;6.774;2023-05-10T05:08:52;100418.91;;;12.26;100.00
13612;BME280;6877;51.436;6.774;2023-05-10T05:11:23;100419.72;;;12.28;100.00
13612;BME280;6877;51.436;6.774;2023-05-10T05:13:55;100427.56;;;12.29;100.00
13612;BME280;6877;51.436;6.774;2023-05-10T05:16:21;100430.97;;;12.32;100.00
13612;BME280;6877;51.436;6.774;2023-05-10T05:18:52;100432.72;;;12.33;100.00
13612;BME280;6877;51.436;6.774;2023-05-10T05:21:24;100438.06;;;12.29;100.00
13612;BME280;6877;51.436;6.774;2023-05-10T05:23:57;100433.75;;;12.27;100.00
13612;BME280;6877;51.436;6.774;2023-05-10T05:26:29;100430.31;;;12.25;100.00
13612;BME280;6877;51.436;6.774;2023-05-10T05:28:55;100432.91;;;12.26;100.00
13612;BME280;6877;51.436;6.774;2023-05-10T05:31:22;100437.09;;;12.32;100.00
13612;BME280;6877;51.436;6.774;2023-05-10T05:33:48;100435.22;;;12.36;100.00
13612;BME280;6877;51.436;6.774;2023-05-10T05:36:14;100445.63;;;12.39;100.00
13612;BME280;6877;51.436;6.774;2023-05-10T05:38:41;100445.34;;;12.48;100.00
13612;BME280;6877;51.436;6.774;2023-05-10T05:41:12;100445.81;;;12.61;100.00
13612;BME280;6877;51.436;6.774;2023-05-10T05:43:43;100453.50;;;12.67;100.00
13612;BME280;6877;51.436;6.774;2023-05-10T05:46:10;100457.00;;;12.67;100.00
13612;BME280;6877;51.436;6.774;2023-05-10T05:48:36;100458.84;;;12.64;100.00
13612;BME280;6877;51.436;6.774;2023-05-10T05:51:02;100462.44;;;12.61;100.00
13612;BME280;6877;51.436;6.774;2023-05-10T05:53:34;100466.06;;;12.57;100.00
13612;BME280;6877;51.436;6.774;2023-05-10T05:56:00;100461.88;;;12.51;100.00
13612;BME280;6877;51.436;6.774;2023-05-10T05:58:32;100463.00;;;12.43;100.00
13612;BME280;6877;51.436;6.774;2023-05-10T06:00:58;100466.69;;;12.37;100.00
13612;BME280;6877;51.436;6.774;2023-05-10T06:03:24;100465.91;;;12.34;100.00
13612;BME280;6877;51.436;6.774;2023-05-10T06:05:51;100467.59;;;12.36;100.00
13612;BME280;6877;51.436;6.774;2023-05-10T06:08:22;100466.69;;;12.37;100.00
13612;BME280;6877;51.436;6.774;2023-05-10T06:10:53;100470.91;;;12.41;100.00
13612;BME280;6877;51.436;6.774;2023-05-10T06:13:20;100477.56;;;12.53;100.00
13612;BME280;6877;51.436;6.774;2023-05-10T06:15:46;100480.72;;;12.64;100.00
13612;BME280;6877;51.436;6.774;2023-05-10T06:18:18;100483.38;;;12.63;100.00
13612;BME280;6877;51.436;6.774;2023-05-10T06:20:44;100482.81;;;12.53;100.00
13612;BME280;6877;51.436;6.774;2023-05-10T06:23:11;100490.84;;;12.48;100.00
13612;BME280;6877;51.436;6.774;2023-05-10T06:25:37;100483.19;;;12.41;100.00
13612;BME280;6877;51.436;6.774;2023-05-10T06:28:04;100487.53;;;12.42;100.00
13612;BME280;6877;51.436;6.774;2023-05-10T06:30:30;100490.06;;;12.45;100.00
13612;BME280;6877;51.436;6.774;2023-05-10T06:32:57;100492.66;;;12.46;100.00
13612;BME280;6877;51.436;6.774;2023-05-10T06:35:23;100498.66;;;12.50;100.00
13612;BME280;6877;51.436;6.774;2023-05-10T06:37:50;100504.56;;;12.57;100.00
13612;BME280;6877;51.436;6.774;2023-05-10T06:40:17;100498.19;;;12.65;100.00
13612;BME280;6877;51.436;6.774;2023-05-10T06:42:44;100500.53;;;12.74;100.00
13612;BME280;6877;51.436;6.774;2023-05-10T06:45:16;100505.53;;;12.82;100.00
13612;BME280;6877;51.436;6.774;2023-05-10T06:47:43;100510.56;;;12.90;100.00
13612;BME280;6877;51.436;6.774;2023-05-10T06:50:10;100501.09;;;12.84;100.00
13612;BME280;6877;51.436;6.774;2023-05-10T06:52:40;100505.31;;;12.90;100.00
13612;BME280;6877;51.436;6.774;2023-05-10T06:55:07;100506.84;;;12.95;100.00
13612;BME280;6877;51.436;6.774;2023-05-10T06:57:40;100515.44;;;13.01;100.00
13612;BME280;6877;51.436;6.774;2023-05-10T07:00:10;100508.38;;;13.03;100.00
13612;BME280;6877;51.436;6.774;2023-05-10T07:02:39;100506.63;;;13.03;100.00
13612;BME280;6877;51.436;6.774;2023-05-10T07:05:06;100510.94;;;13.04;100.00
13612;BME280;6877;51.436;6.774;2023-05-10T07:07:32;100518.94;;;13.01;100.00
13612;BME280;6877;51.436;6.774;2023-05-10T07:09:59;100520.66;;;13.02;100.00
13612;BME280;6877;51.436;6.774;2023-05-10T07:12:30;100518.94;;;13.01;100.00
13612;BME280;6877;51.436;6.774;2023-05-10T07:14:57;100513.66;;;13.03;100.00
13612;BME280;6877;51.436;6.774;2023-05-10T07:17:23;100524.84;;;13.08;100.00
13612;BME280;6877;51.436;6.774;2023-05-10T07:19:50;100522.00;;;13.14;100.00
13612;BME280;6877;51.436;6.774;2023-05-10T07:22:16;100528.19;;;13.13;100.00
13612;BME280;6877;51.436;6.774;2023-05-10T07:24:44;100525.97;;;13.01;100.00
13612;BME280;6877;51.436;6.774;2023-05-10T07:27:10;100521.72;;;12.96;100.00
13612;BME280;6877;51.436;6.774;2023-05-10T07:29:42;100527.75;;;12.98;100.00
13612;BME280;6877;51.436;6.774;2023-05-10T07:32:08;100524.44;;;13.20;100.00
13612;BME280;6877;51.436;6.774;2023-05-10T07:34:39;100523.38;;;13.52;100.00
13612;BME280;6877;51.436;6.774;2023-05-10T07:37:06;100522.31;;;13.83;100.00
13612;BME280;6877;51.436;6.774;2023-05-10T07:39:33;100526.59;;;14.10;100.00
13612;BME280;6877;51.436;6.774;2023-05-10T07:41:59;100525.78;;;14.08;100.00
13612;BME280;6877;51.436;6.774;2023-05-10T07:44:26;100524.91;;;14.09;100.00
13612;BME280;6877;51.436;6.774;2023-05-10T07:46:52;100531.75;;;14.13;100.00
13612;BME280;6877;51.436;6.774;2023-05-10T07:49:19;100531.84;;;14.34;100.00
13612;BME280;6877;51.436;6.774;2023-05-10T07:51:46;100534.06;;;14.92;100.00
13612;BME280;6877;51.436;6.774;2023-05-10T07:54:12;100535.84;;;15.76;100.00
13612;BME280;6877;51.436;6.774;2023-05-10T07:56:39;100543.63;;;15.99;100.00
13612;BME280;6877;51.436;6.774;2023-05-10T07:59:05;100547.59;;;15.89;100.00
13612;BME280;6877;51.436;6.774;2023-05-10T08:01:34;100542.41;;;15.45;100.00
13612;BME280;6877;51.436;6.774;2023-05-10T08:04:01;100545.25;;;14.97;100.00
13612;BME280;6877;51.436;6.774;2023-05-10T08:06:28;100541.03;;;14.71;100.00
13612;BME280;6877;51.436;6.774;2023-05-10T08:08:56;100539.84;;;14.56;100.00
13612;BME280;6877;51.436;6.774;2023-05-10T08:11:22;100547.81;;;14.54;100.00
13612;BME280;6877;51.436;6.774;2023-05-10T08:13:50;100545.00;;;14.81;100.00
13612;BME280;6877;51.436;6.774;2023-05-10T08:16:17;100549.03;;;15.34;100.00
13612;BME280;6877;51.436;6.774;2023-05-10T08:18:49;100553.22;;;16.21;100.00
13612;BME280;6877;51.436;6.774;2023-05-10T08:21:16;100559.28;;;16.81;100.00
13612;BME280;6877;51.436;6.774;2023-05-10T08:23:43;100556.69;;;16.80;100.00
13612;BME280;6877;51.436;6.774;2023-05-10T08:26:10;100557.78;;;16.76;100.00
13612;BME280;6877;51.436;6.774;2023-05-10T08:28:36;100557.81;;;16.74;100.00
13612;BME280;6877;51.436;6.774;2023-05-10T08:31:04;100564.09;;;16.53;100.00
13612;BME280;6877;51.436;6.774;2023-05-10T08:33:30;100572.44;;;16.43;100.00
13612;BME280;6877;51.436;6.774;2023-05-10T08:36:02;100569.38;;;16.34;100.00
13612;BME280;6877;51.436;6.774;2023-05-10T08:38:28;100567.59;;;16.34;100.00
13612;BME280;6877;51.436;6.774;2023-05-10T08:40:55;100575.53;;;16.72;100.00
13612;BME280;6877;51.436;6.774;2023-05-10T08:43:26;100574.78;;;17.25;100.00
13612;BME280;6877;51.436;6.774;2023-05-10T08:45:55;100580.25;;;17.57;100.00
13612;BME280;6877;51.436;6.774;2023-05-10T08:48:29;100595.94;;;17.79;100.00
13612;BME280;6877;51.436;6.774;2023-05-10T08:50:58;100588.38;;;17.89;100.00
13612;BME280;6877;51.436;6.774;2023-05-10T08:53:26;100596.00;;;17.95;100.00
13612;BME280;6877;51.436;6.774;2023-05-10T08:55:54;100602.53;;;18.05;98.65
13612;BME280;6877;51.436;6.774;2023-05-10T08:58:21;100605.13;;;17.89;99.24
13612;BME280;6877;51.436;6.774;2023-05-10T09:00:49;100599.63;;;17.57;99.67
13612;BME280;6877;51.436;6.774;2023-05-10T09:03:21;100608.50;;;17.20;100.00
13612;BME280;6877;51.436;6.774;2023-05-10T09:05:48;100609.13;;;16.89;100.00
13612;BME280;6877;51.436;6.774;2023-05-10T09:08:15;100603.78;;;16.90;100.00
13612;BME280;6877;51.436;6.774;2023-05-10T09:10:45;100608.38;;;17.23;100.00
13612;BME280;6877;51.436;6.774;2023-05-10T09:13:14;100613.81;;;17.74;97.15
13612;BME280;6877;51.436;6.774;2023-05-10T09:15:47;100611.00;;;17.59;92.40
13612;BME280;6877;51.436;6.774;2023-05-10T09:18:14;100620.06;;;17.36;94.57
13612;BME280;6877;51.436;6.774;2023-05-10T09:20:40;100617.97;;;17.07;93.99
13612;BME280;6877;51.436;6.774;2023-05-10T09:23:07;100617.22;;;16.65;91.36
13612;BME280;6877;51.436;6.774;2023-05-10T09:25:33;100616.69;;;16.38;93.55
13612;BME280;6877;51.436;6.774;2023-05-10T09:28:00;100627.06;;;16.22;93.59
13612;BME280;6877;51.436;6.774;2023-05-10T09:30:28;100618.28;;;16.22;93.47
13612;BME280;6877;51.436;6.774;2023-05-10T09:32:57;100618.88;;;16.29;93.27
13612;BME280;6877;51.436;6.774;2023-05-10T09:35:26;100621.34;;;16.33;90.57
13612;BME280;6877;51.436;6.774;2023-05-10T09:37:56;100627.22;;;16.59;91.69
13612;BME280;6877;51.436;6.774;2023-05-10T09:40:24;100632.09;;;16.68;90.83
13612;BME280;6877;51.436;6.774;2023-05-10T09:42:52;100627.56;;;16.51;90.65
13612;BME280;6877;51.436;6.774;2023-05-10T09:45:30;100633.28;;;16.21;89.82
13612;BME280;6877;51.436;6.774;2023-05-10T09:47:57;100636.66;;;16.05;90.36
13612;BME280;6877;51.436;6.774;2023-05-10T09:50:30;100642.25;;;15.97;91.36
13612;BME280;6877;51.436;6.774;2023-05-10T09:53:03;100643.44;;;15.90;90.56
13612;BME280;6877;51.436;6.774;2023-05-10T09:58:02;100646.00;;;15.71;92.07
13612;BME280;6877;51.436;6.774;2023-05-10T10:00:35;100644.19;;;15.49;92.41
13612;BME280;6877;51.436;6.774;2023-05-10T10:03:03;100642.53;;;15.47;93.72
13612;BME280;6877;51.436;6.774;2023-05-10T10:08:00;100642.41;;;15.06;93.77
13612;BME280;6877;51.436;6.774;2023-05-10T10:10:33;100643.06;;;14.89;96.12
13612;BME280;6877;51.436;6.774;2023-05-10T10:12:59;100653.25;;;14.75;95.97
13612;BME280;6877;51.436;6.774;2023-05-10T10:15:26;100651.75;;;14.68;96.80
13612;BME280;6877;51.436;6.774;2023-05-10T10:17:53;100658.50;;;14.75;98.94
13612;BME280;6877;51.436;6.774;2023-05-10T10:20:21;100652.78;;;14.87;98.48
13612;BME280;6877;51.436;6.774;2023-05-10T10:22:49;100659.38;;;14.99;96.86
13612;BME280;6877;51.436;6.774;2023-05-10T10:25:16;100655.19;;;15.17;98.57
13612;BME280;6877;51.436;6.774;2023-05-10T10:30:42;100661.13;;;15.44;95.85
13612;BME280;6877;51.436;6.774;2023-05-10T10:33:47;100662.75;;;15.70;96.42
13612;BME280;6877;51.436;6.774;2023-05-10T10:36:17;100668.75;;;15.73;95.24
13612;BME280;6877;51.436;6.774;2023-05-10T10:55:01;100674.91;;;14.83;100.00
13612;BME280;6877;51.436;6.774;2023-05-10T10:57:31;100672.50;;;14.53;100.00
13612;BME280;6877;51.436;6.774;2023-05-10T11:00:17;100676.38;;;14.42;100.00
13612;BME280;6877;51.436;6.774;2023-05-10T11:02:50;100676.63;;;14.34;100.00
13612;BME280;6877;51.436;6.774;2023-05-10T11:05:24;100678.06;;;14.44;100.00
13612;BME280;6877;51.436;6.774;2023-05-10T11:07:52;100685.91;;;14.71;100.00
13612;BME280;6877;51.436;6.774;2023-05-10T11:10:20;100673.38;;;15.01;100.00
13612;BME280;6877;51.436;6.774;2023-05-10T11:15:48;100679.28;;;15.95;100.00
13612;BME280;6877;51.436;6.774;2023-05-10T11:20:43;100686.91;;;16.63;100.00
13612;BME280;6877;51.436;6.774;2023-05-10T11:23:12;100684.56;;;16.77;96.89
13612;BME280;6877;51.436;6.774;2023-05-10T11:25:43;100683.56;;;16.99;97.93
13612;BME280;6877;51.436;6.774;2023-05-10T11:28:12;100690.56;;;17.00;92.32
13612;BME280;6877;51.436;6.774;2023-05-10T11:30:40;100693.41;;;17.14;91.63
13612;BME280;6877;51.436;6.774;2023-05-10T11:33:07;100690.56;;;17.37;92.78
13612;BME280;6877;51.436;6.774;2023-05-10T11:35:38;100698.09;;;17.64;89.49
13612;BME280;6877;51.436;6.774;2023-05-10T11:38:06;100699.94;;;17.81;85.90
13612;BME280;6877;51.436;6.774;2023-05-10T11:40:34;100700.28;;;17.92;85.66
13612;BME280;6877;51.436;6.774;2023-05-10T11:43:01;100694.44;;;17.86;82.30
13612;BME280;6877;51.436;6.774;2023-05-10T11:45:29;100706.38;;;17.75;83.42
13612;BME280;6877;51.436;6.774;2023-05-10T11:47:57;100701.97;;;17.57;85.06
13612;BME280;6877;51.436;6.774;2023-05-10T11:50:23;100697.41;;;17.42;84.73
13612;BME280;6877;51.436;6.774;2023-05-10T11:52:51;100704.25;;;17.46;86.11
13612;BME280;6877;51.436;6.774;2023-05-10T11:55:18;100700.22;;;17.38;84.14
13612;BME280;6877;51.436;6.774;2023-05-10T11:57:45;100701.22;;;17.17;82.98
13612;BME280;6877;51.436;6.774;2023-05-10T12:00:15;100706.88;;;17.09;85.28
13612;BME280;6877;51.436;6.774;2023-05-10T12:02:41;100703.13;;;16.95;83.04
13612;BME280;6877;51.436;6.774;2023-05-10T12:05:08;100706.56;;;16.97;86.52
13612;BME280;6877;51.436;6.774;2023-05-10T12:07:35;100707.59;;;17.13;88.49
13612;BME280;6877;51.436;6.774;2023-05-10T12:10:12;100707.00;;;17.25;87.16
13612;BME280;6877;51.436;6.774;2023-05-10T12:12:45;100705.22;;;17.26;85.42
13612;BME280;6877;51.436;6.774;2023-05-10T12:15:23;100714.00;;;17.26;85.04
13612;BME280;6877;51.436;6.774;2023-05-10T12:17:50;100709.06;;;17.56;84.81
13612;BME280;6877;51.436;6.774;2023-05-10T12:20:18;100713.38;;;17.76;82.88
13612;BME280;6877;51.436;6.774;2023-05-10T12:22:51;100709.22;;;17.90;79.61
13612;BME280;6877;51.436;6.774;2023-05-10T12:25:19;100710.63;;;17.97;80.40
13612;BME280;6877;51.436;6.774;2023-05-10T12:27:54;100707.22;;;17.95;78.37
13612;BME280;6877;51.436;6.774;2023-05-10T12:30:28;100712.59;;;18.11;81.96
13612;BME280;6877;51.436;6.774;2023-05-10T12:33:12;100708.16;;;18.28;78.40
13612;BME280;6877;51.436;6.774;2023-05-10T12:41:10;100706.44;;;19.11;78.15
13612;BME280;6877;51.436;6.774;2023-05-10T12:43:38;100699.06;;;19.48;78.53
13612;BME280;6877;51.436;6.774;2023-05-10T12:46:16;100704.38;;;19.96;77.22
13612;BME280;6877;51.436;6.774;2023-05-10T12:48:43;100709.72;;;20.40;70.81
13612;BME280;6877;51.436;6.774;2023-05-10T12:51:10;100707.69;;;20.88;71.01
13612;BME280;6877;51.436;6.774;2023-05-10T12:53:39;100708.69;;;21.28;70.55
13612;BME280;6877;51.436;6.774;2023-05-10T12:56:06;100706.78;;;21.45;71.47
13612;BME280;6877;51.436;6.774;2023-05-10T12:58:34;100712.00;;;21.18;65.06
13612;BME280;6877;51.436;6.774;2023-05-10T13:01:00;100717.53;;;20.57;67.33
13612;BME280;6877;51.436;6.774;2023-05-10T13:03:27;100719.34;;;19.97;66.65
13612;BME280;6877;51.436;6.774;2023-05-10T13:05:53;100717.06;;;19.43;68.63
13612;BME280;6877;51.436;6.774;2023-05-10T13:08:19;100720.41;;;19.15;69.27
13612;BME280;6877;51.436;6.774;2023-05-10T13:10:46;100719.78;;;19.26;69.76
13612;BME280;6877;51.436;6.774;2023-05-10T13:13:17;100717.94;;;19.28;71.00
13612;BME280;6877;51.436;6.774;2023-05-10T13:15:44;100716.81;;;19.32;69.97
13612;BME280;6877;51.436;6.774;2023-05-10T13:18:10;100718.59;;;19.47;72.38
13612;BME280;6877;51.436;6.774;2023-05-10T13:20:37;100722.28;;;19.60;69.85
13612;BME280;6877;51.436;6.774;2023-05-10T13:23:03;100720.63;;;20.05;74.42
13612;BME280;6877;51.436;6.774;2023-05-10T13:25:30;100722.47;;;20.64;67.06
13612;BME280;6877;51.436;6.774;2023-05-10T13:27:56;100719.19;;;20.74;65.26
13612;BME280;6877;51.436;6.774;2023-05-10T13:30:23;100717.94;;;20.80;69.13
13612;BME280;6877;51.436;6.774;2023-05-10T13:32:50;100720.59;;;20.94;69.03
13612;BME280;6877;51.436;6.774;2023-05-10T13:35:21;100721.53;;;20.79;65.76
13612;BME280;6877;51.436;6.774;2023-05-10T13:37:53;100722.00;;;20.86;65.48
13612;BME280;6877;51.436;6.774;2023-05-10T13:40:23;100722.69;;;20.89;66.61
13612;BME280;6877;51.436;6.774;2023-05-10T13:42:49;100721.34;;;20.96;63.21
13612;BME280;6877;51.436;6.774;2023-05-10T13:45:15;100716.47;;;21.17;66.61
13612;BME280;6877;51.436;6.774;2023-05-10T13:47:42;100712.38;;;21.40;62.87
13612;BME280;6877;51.436;6.774;2023-05-10T13:50:09;100715.16;;;21.39;58.68